Terminal Aerodrome Forecast
Issued by NWS

Home | Current Version | Previous Version | Graphics & Text | Print | Product List | Glossary On
Versions: 1 2 3 4 5 6 7 8 9 10 11 12 13 14 15 16 17 18
832
FTUS43 KIWX 081529 AAA
TAFSBN
TAF AMD
KSBN 081529Z 0815/0912 27013G22KT 2SM -SHSN OVC020
     FM082200 27013KT 1/2SM SHSN BLSN VV008=

USA.gov is the U.S. government's official web portal to all federal, state and local government web resources and services.